Terminal Aerodrome Forecast
Issued by NWS

Home | Current Version | Previous Version | Text Only | Print | Product List | Glossary On
Versions: 1 2 3 4 5 6 7 8 9 10 11 12 13 14 15 16 17 18 19 20 21 22 23 24 25 26 27 28 29 30 31 32 33
000
FTUS45 KPSR 302300
TAFIWA
TAF
KIWA 302335Z 3100/3124 28010KT P6SM FEW120 SCT250
     FM310400 22012KT P6SM BKN250
     FM310700 15008KT P6SM SCT250
     FM311800 25010KT P6SM BKN250
      AMD NOT SKED 3107/3112=

USA.gov is the U.S. government's official web portal to all federal, state and local government web resources and services.